createdAt,value
2022-11-01T00:00:11.000Z,161
2022-11-01T00:01:27.000Z,160
2022-11-01T00:02:42.000Z,159
2022-11-01T00:03:58.000Z,160
2022-11-01T00:05:15.000Z,161
2022-11-01T00:06:31.000Z,159
2022-11-01T00:07:47.000Z,159
2022-11-01T00:09:03.000Z,159
2022-11-01T00:10:19.000Z,160
2022-11-01T00:11:35.000Z,159
2022-11-01T00:12:50.000Z,161
2022-11-01T00:14:06.000Z,161
2022-11-01T00:15:22.000Z,161
2022-11-01T00:16:38.000Z,159
2022-11-01T00:17:53.000Z,160
2022-11-01T00:19:09.000Z,158
2022-11-01T00:20:25.000Z,158
2022-11-01T00:21:42.000Z,159
2022-11-01T00:22:58.000Z,160
2022-11-01T00:24:14.000Z,159
2022-11-01T00:26:47.000Z,161
2022-11-01T00:28:03.000Z,161
2022-11-01T00:29:19.000Z,161
2022-11-01T00:30:35.000Z,160
2022-11-01T00:31:52.000Z,161
2022-11-01T00:33:08.000Z,161
2022-11-01T00:34:23.000Z,161
2022-11-01T00:35:39.000Z,160
2022-11-01T00:36:55.000Z,158
2022-11-01T00:39:28.000Z,159
2022-11-01T00:40:44.000Z,161
2022-11-01T00:41:59.000Z,162
2022-11-01T00:43:15.000Z,161
2022-11-01T00:44:31.000Z,161
2022-11-01T00:45:47.000Z,160
2022-11-01T00:47:03.000Z,159
2022-11-01T00:48:20.000Z,162
2022-11-01T00:49:36.000Z,160
2022-11-01T00:52:08.000Z,161
2022-11-01T00:53:25.000Z,162
2022-11-01T00:54:41.000Z,162
2022-11-01T00:55:57.000Z,162
2022-11-01T00:57:13.000Z,162
2022-11-01T00:58:30.000Z,161
2022-11-01T00:59:45.000Z,162
2022-11-01T01:01:01.000Z,162
2022-11-01T01:02:17.000Z,161
2022-11-01T01:03:33.000Z,162
2022-11-01T01:04:50.000Z,161
2022-11-01T01:06:06.000Z,161
2022-11-01T01:07:22.000Z,161
2022-11-01T01:08:38.000Z,162
2022-11-01T01:09:54.000Z,162
2022-11-01T01:11:09.000Z,160
2022-11-01T01:12:25.000Z,160
2022-11-01T01:13:41.000Z,162
2022-11-01T01:14:58.000Z,162
2022-11-01T01:16:14.343Z,161
2022-11-01T01:17:30.000Z,160
2022-11-01T01:18:46.000Z,161
2022-11-01T01:20:03.000Z,160
2022-11-01T01:21:19.000Z,161
2022-11-01T01:22:35.000Z,161
2022-11-01T01:23:51.000Z,161
2022-11-01T01:25:07.000Z,161
2022-11-01T01:26:24.000Z,161
2022-11-01T01:27:39.000Z,158
2022-11-01T01:30:11.000Z,160
2022-11-01T01:32:44.000Z,158
2022-11-01T01:33:59.000Z,158
2022-11-01T01:35:14.000Z,161
2022-11-01T01:36:31.000Z,159
2022-11-01T01:37:47.000Z,158
2022-11-01T01:39:03.000Z,159
2022-11-01T01:40:19.000Z,162
2022-11-01T01:42:52.000Z,161
2022-11-01T01:44:08.000Z,161
2022-11-01T01:45:24.000Z,160
2022-11-01T01:46:41.000Z,159
2022-11-01T01:47:57.000Z,161
2022-11-01T01:49:13.000Z,161
2022-11-01T01:50:29.000Z,161
2022-11-01T01:51:45.000Z,159
2022-11-01T01:53:01.000Z,161
2022-11-01T01:55:33.000Z,162
2022-11-01T01:56:48.000Z,161
2022-11-01T01:58:04.000Z,162
2022-11-01T01:59:20.000Z,162
2022-11-01T02:00:36.000Z,162
2022-11-01T02:01:52.000Z,162
2022-11-01T02:03:09.000Z,162
2022-11-01T02:04:25.000Z,161
2022-11-01T02:05:41.000Z,162
2022-11-01T02:08:14.000Z,161
2022-11-01T02:09:30.000Z,161
2022-11-01T02:10:46.000Z,159
2022-11-01T02:12:02.000Z,160
2022-11-01T02:13:18.000Z,158
2022-11-01T02:14:34.000Z,160
2022-11-01T02:15:50.000Z,161
2022-11-01T02:17:06.000Z,162
2022-11-01T02:18:22.000Z,161
2022-11-01T02:20:55.000Z,162
2022-11-01T02:22:11.000Z,160
2022-11-01T02:23:27.000Z,159
2022-11-01T02:24:44.000Z,162
2022-11-01T02:25:59.000Z,161
2022-11-01T02:27:14.000Z,161
2022-11-01T02:28:29.000Z,159
2022-11-01T02:29:45.000Z,158
2022-11-01T02:31:01.000Z,158
2022-11-01T02:33:33.000Z,160
2022-11-01T02:34:50.000Z,159
2022-11-01T02:36:06.000Z,160
2022-11-01T02:37:22.000Z,158
2022-11-01T02:38:38.000Z,159
2022-11-01T02:39:55.000Z,160
2022-11-01T02:41:11.000Z,161
2022-11-01T02:42:27.000Z,159
2022-11-01T02:43:43.000Z,157
2022-11-01T02:46:16.000Z,160
2022-11-01T02:47:31.000Z,160
2022-11-01T02:48:47.000Z,159
2022-11-01T02:50:02.000Z,160
2022-11-01T02:51:19.000Z,160
2022-11-01T02:52:35.000Z,161
2022-11-01T02:53:51.000Z,161
2022-11-01T02:55:07.000Z,162
2022-11-01T02:56:24.000Z,161
2022-11-01T02:58:55.000Z,161
2022-11-01T03:00:10.000Z,162
2022-11-01T03:01:26.000Z,161
2022-11-01T03:02:42.000Z,161
2022-11-01T03:03:58.000Z,161
2022-11-01T03:05:13.000Z,161
2022-11-01T03:06:29.000Z,161
2022-11-01T03:07:45.000Z,161
2022-11-01T03:09:01.000Z,161
2022-11-01T03:11:34.000Z,159
2022-11-01T03:12:50.000Z,161
2022-11-01T03:14:06.000Z,160
2022-11-01T03:15:22.000Z,160
2022-11-01T03:16:38.000Z,160
2022-11-01T03:17:55.000Z,160
2022-11-01T03:19:11.000Z,160
2022-11-01T03:20:27.000Z,158
2022-11-01T03:21:43.000Z,162
2022-11-01T03:24:15.000Z,161
2022-11-01T03:25:31.000Z,161
2022-11-01T03:26:47.000Z,160
2022-11-01T03:28:04.000Z,161
2022-11-01T03:29:20.000Z,162
2022-11-01T03:30:36.000Z,162
2022-11-01T03:31:52.000Z,162
2022-11-01T03:33:09.000Z,162
2022-11-01T03:34:25.000Z,162
2022-11-01T03:36:57.000Z,162
2022-11-01T03:38:13.000Z,163
2022-11-01T03:39:29.000Z,160
2022-11-01T03:40:45.000Z,158
2022-11-01T03:42:01.000Z,159
2022-11-01T03:43:17.000Z,162
2022-11-01T03:45:50.000Z,161
2022-11-01T03:47:06.000Z,161
2022-11-01T03:48:22.000Z,160
2022-11-01T03:49:39.000Z,159
2022-11-01T03:50:55.000Z,162
2022-11-01T03:52:11.000Z,162
2022-11-01T03:53:27.000Z,163
2022-11-01T03:54:43.000Z,161
2022-11-01T03:55:59.000Z,160
2022-11-01T03:57:15.000Z,161
2022-11-01T03:58:31.000Z,162
2022-11-01T03:59:47.000Z,161
2022-11-01T04:01:04.000Z,162
2022-11-01T04:02:20.000Z,161
2022-11-01T04:03:35.000Z,160
2022-11-01T04:04:50.000Z,161
2022-11-01T04:06:07.000Z,161
2022-11-01T04:07:23.000Z,161
2022-11-01T04:08:39.000Z,161
2022-11-01T04:09:55.000Z,162
2022-11-01T04:11:12.000Z,161
2022-11-01T04:12:28.000Z,161
2022-11-01T04:15:00.000Z,161
2022-11-01T04:16:17.000Z,161
2022-11-01T04:17:33.000Z,159
2022-11-01T04:18:49.000Z,161
2022-11-01T04:20:05.727Z,162
2022-11-01T04:21:20.000Z,162
2022-11-01T04:22:37.000Z,161
2022-11-01T04:23:53.000Z,162
2022-11-01T04:25:09.000Z,160
2022-11-01T04:26:25.000Z,161
2022-11-01T04:27:42.000Z,161
2022-11-01T04:28:58.000Z,162
2022-11-01T04:30:14.000Z,161
2022-11-01T04:31:29.000Z,162
2022-11-01T04:32:45.000Z,162
2022-11-01T04:34:01.000Z,161
2022-11-01T04:35:17.000Z,161
2022-11-01T04:36:33.000Z,162
2022-11-01T04:37:50.000Z,161
2022-11-01T04:39:06.000Z,163
2022-11-01T04:40:22.000Z,162
2022-11-01T04:41:38.000Z,161
2022-11-01T04:42:55.000Z,160
2022-11-01T04:44:11.000Z,161
2022-11-01T04:45:27.000Z,161
2022-11-01T04:46:43.000Z,162
2022-11-01T04:47:59.000Z,161
2022-11-01T04:49:15.000Z,161
2022-11-01T04:50:31.000Z,161
2022-11-01T04:51:47.000Z,162
2022-11-01T04:53:03.000Z,161
2022-11-01T04:54:20.000Z,161
2022-11-01T04:55:36.000Z,161
2022-11-01T04:56:52.000Z,161
2022-11-01T04:58:07.000Z,162
2022-11-01T04:59:23.000Z,161
2022-11-01T05:00:38.000Z,162
2022-11-01T05:01:53.000Z,160
2022-11-01T05:03:09.000Z,160
2022-11-01T05:05:42.000Z,160
2022-11-01T05:06:58.000Z,161
2022-11-01T05:08:14.000Z,161
2022-11-01T05:09:31.000Z,159
2022-11-01T05:10:47.000Z,161
2022-11-01T05:12:03.000Z,162
2022-11-01T05:13:19.000Z,162
2022-11-01T05:14:35.000Z,161
2022-11-01T05:15:52.000Z,162
2022-11-01T05:18:24.000Z,163
2022-11-01T05:19:39.000Z,162
2022-11-01T05:20:55.000Z,161
2022-11-01T05:22:11.000Z,160
2022-11-01T05:23:27.000Z,161
2022-11-01T05:24:43.000Z,161
2022-11-01T05:26:00.000Z,162
2022-11-01T05:27:16.000Z,161
2022-11-01T05:28:32.000Z,161
2022-11-01T05:29:48.000Z,160
2022-11-01T05:31:05.000Z,160
2022-11-01T05:32:21.000Z,159
2022-11-01T05:33:36.000Z,160
2022-11-01T05:34:51.000Z,159
2022-11-01T05:36:08.000Z,162
2022-11-01T05:37:24.000Z,163
2022-11-01T05:38:40.000Z,162
2022-11-01T05:39:56.000Z,161
2022-11-01T05:41:12.000Z,162
2022-11-01T05:43:45.000Z,162
2022-11-01T05:45:01.000Z,159
2022-11-01T05:46:17.000Z,160
2022-11-01T05:47:34.000Z,160
2022-11-01T05:48:50.000Z,162
2022-11-01T05:50:06.000Z,163
2022-11-01T05:51:21.000Z,160
2022-11-01T05:52:38.000Z,162
2022-11-01T05:53:54.000Z,162
2022-11-01T05:55:10.000Z,161
2022-11-01T05:56:26.000Z,161
2022-11-01T05:57:43.000Z,162
2022-11-01T05:58:59.000Z,166
2022-11-01T06:00:15.000Z,166
2022-11-01T06:01:31.000Z,168
2022-11-01T06:02:47.000Z,166
2022-11-01T06:04:04.000Z,171
2022-11-01T06:05:20.000Z,175
2022-11-01T06:06:36.000Z,178
2022-11-01T06:09:08.000Z,25
2022-11-01T06:10:24.000Z,25
2022-11-01T06:11:40.000Z,32
2022-11-01T06:12:56.000Z,38
2022-11-01T06:14:13.000Z,44
2022-11-01T06:15:29.000Z,50
2022-11-01T06:16:45.000Z,56
2022-11-01T06:18:01.000Z,62
2022-11-01T06:19:17.000Z,72
2022-11-01T06:21:48.000Z,94
2022-11-01T06:23:03.000Z,105
2022-11-01T06:24:19.000Z,118
2022-11-01T06:25:35.000Z,132
2022-11-01T06:26:51.000Z,146
2022-11-01T06:28:07.000Z,156
2022-11-01T06:29:23.000Z,191
2022-11-01T06:30:40.000Z,201
2022-11-01T06:31:56.000Z,214
2022-11-01T06:33:12.000Z,224
2022-11-01T06:34:28.000Z,204
2022-11-01T06:35:45.000Z,245
2022-11-01T06:37:01.000Z,264
2022-11-01T06:38:17.000Z,336
2022-11-01T06:39:33.000Z,271
2022-11-01T06:40:49.000Z,356
2022-11-01T06:42:05.000Z,407
2022-11-01T06:43:21.000Z,420
2022-11-01T06:44:37.000Z,469
2022-11-01T06:45:54.000Z,511
2022-11-01T06:47:10.000Z,562
2022-11-01T06:48:26.000Z,614
2022-11-01T06:49:41.000Z,636
2022-11-01T06:50:56.000Z,692
2022-11-01T06:52:12.000Z,741
2022-11-01T06:53:27.000Z,782
2022-11-01T06:54:43.000Z,832
2022-11-01T06:55:59.000Z,874
2022-11-01T06:57:16.000Z,924
2022-11-01T06:59:48.000Z,1010
2022-11-01T07:01:04.000Z,1054
2022-11-01T07:02:21.000Z,1071
2022-11-01T07:03:37.000Z,1069
2022-11-01T07:04:52.000Z,1084
2022-11-01T07:06:08.000Z,1125
2022-11-01T07:07:25.000Z,1110
2022-11-01T07:08:41.000Z,1067
2022-11-01T07:09:57.000Z,1026
2022-11-01T07:12:30.000Z,1036
2022-11-01T07:13:45.000Z,1076
2022-11-01T07:15:00.000Z,1093
2022-11-01T07:16:16.000Z,1136
2022-11-01T07:17:33.000Z,1134
2022-11-01T07:18:49.000Z,1127
2022-11-01T07:20:05.000Z,1098
2022-11-01T07:21:21.000Z,1081
2022-11-01T07:22:37.000Z,1105
2022-11-01T07:25:10.000Z,1141
2022-11-01T07:26:26.000Z,1150
2022-11-01T07:27:42.000Z,1180
2022-11-01T07:28:59.000Z,1194
2022-11-01T07:30:15.000Z,1166
2022-11-01T07:31:30.000Z,1150
2022-11-01T07:32:46.000Z,1156
2022-11-01T07:34:03.000Z,1165
2022-11-01T07:35:19.000Z,1188
2022-11-01T07:37:51.000Z,1290
2022-11-01T07:39:07.000Z,1187
2022-11-01T07:40:22.000Z,1067
2022-11-01T07:41:38.000Z,1058
2022-11-01T07:42:54.000Z,1092
2022-11-01T07:44:10.000Z,1097
2022-11-01T07:45:27.000Z,1095
2022-11-01T07:46:43.000Z,1097
2022-11-01T07:47:59.000Z,1096
2022-11-01T07:49:15.000Z,1105
2022-11-01T07:50:32.000Z,1116
2022-11-01T07:51:48.000Z,1138
2022-11-01T07:53:03.000Z,1161
2022-11-01T07:54:18.000Z,1193
2022-11-01T07:55:35.000Z,1227
2022-11-01T07:56:51.000Z,1277
2022-11-01T07:59:23.000Z,1344
2022-11-01T08:00:40.000Z,1411
2022-11-01T08:01:56.000Z,1449
2022-11-01T08:03:12.000Z,1480
2022-11-01T08:04:28.000Z,1537
2022-11-01T08:05:45.000Z,1590
2022-11-01T08:07:01.000Z,1678
2022-11-01T08:08:17.000Z,1772
2022-11-01T08:09:33.000Z,1884
2022-11-01T08:10:48.000Z,2014
2022-11-01T08:12:05.000Z,2116
2022-11-01T08:13:21.000Z,2189
2022-11-01T08:14:37.000Z,2220
2022-11-01T08:15:53.000Z,2271
2022-11-01T08:17:10.000Z,2323
2022-11-01T08:18:26.000Z,2331
2022-11-01T08:19:42.000Z,2343
2022-11-01T08:20:57.000Z,2347
2022-11-01T08:22:13.000Z,2359
2022-11-01T08:23:29.000Z,2374
2022-11-01T08:24:45.000Z,2392
2022-11-01T08:26:01.000Z,2404
2022-11-01T08:27:18.000Z,2413
2022-11-01T08:28:34.000Z,2421
2022-11-01T08:29:50.000Z,2431
2022-11-01T08:31:06.000Z,2443
2022-11-01T08:32:22.000Z,2453
2022-11-01T08:33:39.000Z,2465
2022-11-01T08:34:55.000Z,2472
2022-11-01T08:36:11.000Z,2480
2022-11-01T08:37:27.000Z,2489
2022-11-01T08:38:43.000Z,2497
2022-11-01T08:39:59.000Z,2509
2022-11-01T08:41:15.000Z,2519
2022-11-01T08:42:31.000Z,2528
2022-11-01T08:43:48.000Z,2539
2022-11-01T08:45:04.000Z,2552
2022-11-01T08:46:20.000Z,2559
2022-11-01T08:47:36.000Z,2565
2022-11-01T08:48:52.000Z,2573
2022-11-01T08:50:07.000Z,2576
2022-11-01T08:51:22.000Z,2576
2022-11-01T08:52:37.000Z,2581
2022-11-01T08:53:54.000Z,2587
2022-11-01T08:55:10.000Z,2593
2022-11-01T08:56:26.000Z,2600
2022-11-01T08:57:42.000Z,2608
2022-11-01T08:58:58.000Z,2614
2022-11-01T09:00:15.000Z,2618
2022-11-01T09:01:31.000Z,2631
2022-11-01T09:02:47.000Z,2638
2022-11-01T09:04:03.000Z,2647
2022-11-01T09:05:20.000Z,2659
2022-11-01T09:06:36.000Z,2663
2022-11-01T09:07:52.000Z,2675
2022-11-01T09:09:07.000Z,2688
2022-11-01T09:10:24.000Z,2685
2022-11-01T09:11:40.000Z,2698
2022-11-01T09:12:56.000Z,2704
2022-11-01T09:14:12.000Z,2717
2022-11-01T09:15:29.000Z,2730
2022-11-01T09:16:45.000Z,2731
2022-11-01T09:18:00.000Z,2738
2022-11-01T09:19:15.000Z,2741
2022-11-01T09:20:31.000Z,2746
2022-11-01T09:21:46.000Z,2751
2022-11-01T09:23:02.000Z,2765
2022-11-01T09:24:18.000Z,2774
2022-11-01T09:25:35.000Z,2780
2022-11-01T09:26:51.000Z,2787
2022-11-01T09:28:07.000Z,2798
2022-11-01T09:29:23.000Z,2810
2022-11-01T09:30:39.000Z,2818
2022-11-01T09:31:56.000Z,2826
2022-11-01T09:33:12.000Z,2834
2022-11-01T09:34:28.000Z,2842
2022-11-01T09:35:44.000Z,2843
2022-11-01T09:37:01.000Z,2849
2022-11-01T09:38:16.000Z,2847
2022-11-01T09:39:32.000Z,2847
2022-11-01T09:40:48.000Z,2853
2022-11-01T09:42:05.000Z,2859
2022-11-01T09:43:21.000Z,2872
2022-11-01T09:44:37.000Z,2883
2022-11-01T09:45:53.000Z,2880
2022-11-01T09:47:09.000Z,2882
2022-11-01T09:48:24.000Z,2893
2022-11-01T09:49:39.000Z,2898
2022-11-01T09:50:54.000Z,2896
2022-11-01T09:52:11.000Z,2898
2022-11-01T09:53:27.000Z,2901
2022-11-01T09:54:43.000Z,2903
2022-11-01T09:57:15.000Z,2904
2022-11-01T09:58:32.000Z,2904
2022-11-01T09:59:48.000Z,2915
2022-11-01T10:01:04.000Z,2920
2022-11-01T10:02:20.000Z,2925
2022-11-01T10:03:37.000Z,2926
2022-11-01T10:04:53.000Z,2924
2022-11-01T10:06:09.000Z,2923
2022-11-01T10:07:24.000Z,2920
2022-11-01T10:09:57.000Z,2929
2022-11-01T10:11:12.000Z,2932
2022-11-01T10:12:28.000Z,2936
2022-11-01T10:13:44.000Z,2943
2022-11-01T10:15:00.000Z,2943
2022-11-01T10:16:16.000Z,2942
2022-11-01T10:17:32.000Z,2953
2022-11-01T10:18:48.000Z,2956
2022-11-01T10:20:05.000Z,2956
2022-11-01T10:21:21.000Z,2951
2022-11-01T10:22:37.000Z,2953
2022-11-01T10:23:53.000Z,2952
2022-11-01T10:25:09.000Z,2949
2022-11-01T10:26:24.000Z,2951
2022-11-01T10:27:40.000Z,2952
2022-11-01T10:28:56.000Z,2957
2022-11-01T10:30:13.000Z,2955
2022-11-01T10:31:29.000Z,2959
2022-11-01T10:32:45.000Z,2961
2022-11-01T10:34:01.000Z,2962
2022-11-01T10:35:18.000Z,2966
2022-11-01T10:37:50.000Z,2963
2022-11-01T10:39:06.000Z,2961
2022-11-01T10:40:23.000Z,2963
2022-11-01T10:41:39.000Z,2967
2022-11-01T10:42:54.000Z,2967
2022-11-01T10:44:10.000Z,2973
2022-11-01T10:45:26.000Z,2978
2022-11-01T10:46:43.000Z,2978
2022-11-01T10:47:59.000Z,2975
2022-11-01T10:49:15.000Z,2972
2022-11-01T10:50:31.000Z,2972
2022-11-01T10:51:48.000Z,2968
2022-11-01T10:53:03.000Z,2965
2022-11-01T10:54:18.000Z,2963
2022-11-01T10:55:33.000Z,2964
2022-11-01T10:56:49.000Z,2971
2022-11-01T10:58:05.000Z,2971
2022-11-01T11:00:37.000Z,2963
2022-11-01T11:01:54.000Z,2959
2022-11-01T11:03:10.000Z,2956
2022-11-01T11:04:26.000Z,2953
2022-11-01T11:05:42.000Z,2948
2022-11-01T11:06:59.000Z,2947
2022-11-01T11:08:15.000Z,2943
2022-11-01T11:09:31.000Z,2937
2022-11-01T11:10:47.000Z,2941
2022-11-01T11:13:20.000Z,2938
2022-11-01T11:14:35.000Z,2934
2022-11-01T11:15:50.000Z,2927
2022-11-01T11:17:06.000Z,2930
2022-11-01T11:18:23.000Z,2936
2022-11-01T11:19:38.000Z,2941
2022-11-01T11:20:54.000Z,2940
2022-11-01T11:22:10.000Z,2938
2022-11-01T11:23:27.000Z,2935
2022-11-01T11:25:59.000Z,2934
2022-11-01T11:27:15.000Z,2938
2022-11-01T11:28:32.000Z,2938
2022-11-01T11:29:48.000Z,2946
2022-11-01T11:31:04.000Z,2952
2022-11-01T11:32:20.000Z,2961
2022-11-01T11:33:36.000Z,2965
2022-11-01T11:34:53.000Z,2965
2022-11-01T11:36:08.000Z,2961
2022-11-01T11:37:24.000Z,2963
2022-11-01T11:38:40.000Z,2967
2022-11-01T11:39:57.000Z,2968
2022-11-01T11:41:13.000Z,2967
2022-11-01T11:42:28.000Z,2970
2022-11-01T11:43:43.000Z,2975
2022-11-01T11:45:00.000Z,2973
2022-11-01T11:46:16.000Z,2972
2022-11-01T11:47:32.000Z,2981
2022-11-01T11:48:48.000Z,2988
2022-11-01T11:51:21.000Z,2991
2022-11-01T11:52:37.000Z,2990
2022-11-01T11:53:53.000Z,2996
2022-11-01T11:55:10.000Z,2997
2022-11-01T11:56:26.000Z,3000
2022-11-01T11:57:42.000Z,3013
2022-11-01T11:58:58.000Z,3026
2022-11-01T12:00:13.000Z,3036
2022-11-01T12:01:30.000Z,3043
2022-11-01T12:02:46.000Z,3049
2022-11-01T12:04:02.000Z,3068
2022-11-01T12:05:18.000Z,3127
2022-11-01T12:06:35.000Z,3345
2022-11-01T12:07:51.000Z,3552
2022-11-01T12:09:07.000Z,3413
2022-11-01T12:10:22.000Z,3233
2022-11-01T12:11:38.000Z,3247
2022-11-01T12:12:54.000Z,3277
2022-11-01T12:14:09.000Z,3444
2022-11-01T12:15:24.000Z,3572
2022-11-01T12:16:41.000Z,3392
2022-11-01T12:17:57.000Z,3237
2022-11-01T12:19:13.000Z,3215
2022-11-01T12:20:29.000Z,3233
2022-11-01T12:21:46.000Z,3329
2022-11-01T12:23:02.000Z,3377
2022-11-01T12:24:18.000Z,3249
2022-11-01T12:25:34.000Z,3171
2022-11-01T12:26:50.000Z,3172
2022-11-01T12:29:23.000Z,3246
2022-11-01T12:30:39.000Z,3235
2022-11-01T12:31:54.000Z,3329
2022-11-01T12:39:32.000Z,3523
2022-11-01T12:40:47.000Z,3527
2022-11-01T12:42:02.000Z,3617
2022-11-01T12:43:19.000Z,3779
2022-11-01T12:44:35.000Z,3819
2022-11-01T12:45:51.000Z,3997
2022-11-01T12:47:07.000Z,4346
2022-11-01T12:48:24.000Z,4437
2022-11-01T12:49:40.000Z,4607
2022-11-01T12:50:56.000Z,4629
2022-11-01T12:52:12.000Z,4158
2022-11-01T12:53:28.000Z,3515
2022-11-01T12:54:45.000Z,3637
2022-11-01T12:56:00.000Z,3982
2022-11-01T12:57:15.000Z,3647
2022-11-01T12:58:31.000Z,3211
2022-11-01T12:59:48.000Z,3135
2022-11-01T13:01:04.000Z,3125
2022-11-01T13:02:20.000Z,3134
2022-11-01T13:03:36.000Z,3206
2022-11-01T13:04:53.000Z,3380
2022-11-01T13:06:09.000Z,3604
2022-11-01T13:07:25.000Z,3569
2022-11-01T13:08:41.000Z,3382
2022-11-01T13:09:57.000Z,3483
2022-11-01T13:11:12.000Z,3470
2022-11-01T13:12:28.000Z,3200
2022-11-01T13:13:44.000Z,3081
2022-11-01T13:15:01.000Z,3052
2022-11-01T13:16:17.000Z,3026
2022-11-01T13:21:22.000Z,2998
2022-11-01T13:22:38.000Z,3013
2022-11-01T13:23:54.000Z,3032
2022-11-01T13:25:10.000Z,3088
2022-11-01T13:26:27.000Z,3156
2022-11-01T13:27:43.000Z,3171
2022-11-01T13:28:58.000Z,3162
2022-11-01T13:30:14.000Z,3220
2022-11-01T13:31:31.000Z,3232
2022-11-01T13:32:47.000Z,3111
2022-11-01T13:34:03.000Z,3157
2022-11-01T13:35:19.000Z,3271
2022-11-01T13:36:36.000Z,3209
2022-11-01T13:39:08.000Z,3015
2022-11-01T13:40:24.000Z,2993
2022-11-01T13:41:41.000Z,2979
2022-11-01T13:42:57.000Z,2970
2022-11-01T13:45:29.000Z,3019
2022-11-01T13:46:46.000Z,2989
2022-11-01T13:48:02.000Z,2944
2022-11-01T13:49:17.000Z,2908
2022-11-01T13:50:32.000Z,2944
2022-11-01T13:51:49.000Z,3168
2022-11-01T13:53:05.000Z,3247
2022-11-01T13:54:21.000Z,3118
2022-11-01T13:55:37.000Z,3009
2022-11-01T13:56:53.000Z,3101
2022-11-01T13:58:10.000Z,3181
2022-11-01T13:59:26.000Z,3122
2022-11-01T14:00:42.000Z,3044
2022-11-01T14:01:58.000Z,2977
2022-11-01T14:03:14.000Z,2911
2022-11-01T14:04:29.000Z,2877
2022-11-01T14:05:45.000Z,2861
2022-11-01T14:07:01.000Z,2856
2022-11-01T14:08:18.000Z,2846
2022-11-01T14:09:34.000Z,2835
2022-11-01T14:10:50.000Z,2825
2022-11-01T14:12:06.000Z,2811
2022-11-01T14:13:23.000Z,2801
2022-11-01T14:14:39.000Z,2782
2022-11-01T14:15:55.000Z,2760
2022-11-01T14:17:10.000Z,2745
2022-11-01T14:18:25.000Z,2737
2022-11-01T14:19:42.000Z,2733
2022-11-01T14:20:58.000Z,2723
2022-11-01T14:23:30.000Z,2687
2022-11-01T14:24:47.000Z,2686
2022-11-01T14:26:03.000Z,2680
2022-11-01T14:27:19.000Z,2671
2022-11-01T14:28:35.000Z,2656
2022-11-01T14:29:52.000Z,2637
2022-11-01T14:31:08.000Z,2624
2022-11-01T14:32:24.000Z,2606
2022-11-01T14:33:40.000Z,2592
2022-11-01T14:34:56.000Z,2576
2022-11-01T14:36:12.000Z,2552
2022-11-01T14:37:28.000Z,2533
2022-11-01T14:38:44.000Z,2511
2022-11-01T14:40:00.000Z,2495
2022-11-01T14:41:17.000Z,2474
2022-11-01T14:42:33.000Z,2457
2022-11-01T14:43:49.000Z,2435
2022-11-01T14:45:04.000Z,2410
2022-11-01T14:46:20.000Z,2390
2022-11-01T14:48:52.000Z,2355
2022-11-01T14:50:08.000Z,2339
2022-11-01T14:51:25.000Z,2327
2022-11-01T14:52:41.000Z,2313
2022-11-01T14:53:56.000Z,2287
2022-11-01T14:55:11.000Z,2269
2022-11-01T14:56:28.000Z,2260
2022-11-01T14:57:44.000Z,2254
2022-11-01T14:59:00.000Z,2242
2022-11-01T15:00:16.000Z,2217
2022-11-01T15:02:49.000Z,2157
2022-11-01T15:04:05.000Z,2124
2022-11-01T15:05:21.000Z,2093
2022-11-01T15:06:37.000Z,2060
2022-11-01T15:07:54.000Z,2030
2022-11-01T15:09:10.000Z,2004
2022-11-01T15:10:26.000Z,1978
2022-11-01T15:11:43.000Z,1955
2022-11-01T15:12:59.000Z,1928
2022-11-01T15:15:31.000Z,1860
2022-11-01T15:16:47.000Z,1824
2022-11-01T15:18:02.000Z,1781
2022-11-01T15:19:18.000Z,1744
2022-11-01T15:20:34.000Z,1707
2022-11-01T15:21:50.000Z,1669
2022-11-01T15:23:07.000Z,1628
2022-11-01T15:24:23.000Z,1594
2022-11-01T15:26:55.000Z,1523
2022-11-01T15:28:12.000Z,1484
2022-11-01T15:29:28.000Z,1445
2022-11-01T15:30:44.000Z,1403
2022-11-01T15:32:00.000Z,1360
2022-11-01T15:33:17.000Z,1318
2022-11-01T15:34:32.000Z,1276
2022-11-01T15:35:48.000Z,1230
2022-11-01T15:37:04.000Z,1190
2022-11-01T15:38:21.000Z,1142
2022-11-01T15:39:37.000Z,1100
2022-11-01T15:40:53.000Z,1056
2022-11-01T15:42:09.000Z,1012
2022-11-01T15:43:25.000Z,970
2022-11-01T15:44:41.000Z,925
2022-11-01T15:45:56.000Z,879
2022-11-01T15:47:12.000Z,834
2022-11-01T15:48:28.000Z,790
2022-11-01T15:49:45.000Z,745
2022-11-01T15:52:17.000Z,652
2022-11-01T15:53:33.000Z,610
2022-11-01T15:54:50.000Z,566
2022-11-01T15:56:06.000Z,522
2022-11-01T15:57:22.000Z,481
2022-11-01T15:58:38.000Z,439
2022-11-01T15:59:55.000Z,396
2022-11-01T16:01:11.000Z,357
2022-11-01T16:02:26.000Z,317
2022-11-01T16:04:58.000Z,254
2022-11-01T16:06:14.000Z,223
2022-11-01T16:07:29.000Z,196
2022-11-01T16:08:45.000Z,175
2022-11-01T16:10:01.000Z,152
2022-11-01T16:11:18.000Z,133
2022-11-01T16:12:34.000Z,115
2022-11-01T16:13:50.000Z,101
2022-11-01T16:15:06.000Z,88
2022-11-01T16:16:23.000Z,74
2022-11-01T16:17:39.000Z,64
2022-11-01T16:18:55.000Z,56
2022-11-01T16:20:10.000Z,43
2022-11-01T16:21:26.000Z,14
2022-11-01T16:22:42.000Z,203
2022-11-01T16:23:58.000Z,193
2022-11-01T16:26:31.000Z,181
2022-11-01T16:27:47.000Z,179
2022-11-01T16:30:19.000Z,173
2022-11-01T16:31:35.000Z,173
2022-11-01T16:32:52.000Z,171
2022-11-01T16:34:08.000Z,168
2022-11-01T16:35:24.000Z,170
2022-11-01T16:36:39.000Z,167
2022-11-01T16:37:55.000Z,168
2022-11-01T16:39:11.000Z,165
2022-11-01T16:40:27.000Z,166
2022-11-01T16:43:00.000Z,165
2022-11-01T16:44:16.000Z,165
2022-11-01T16:45:32.000Z,163
2022-11-01T16:46:48.000Z,163
2022-11-01T16:48:05.000Z,161
2022-11-01T16:49:21.000Z,162
2022-11-01T16:50:37.000Z,163
2022-11-01T16:51:53.000Z,161
2022-11-01T16:53:10.000Z,163
2022-11-01T16:55:41.000Z,161
2022-11-01T16:56:56.000Z,163
2022-11-01T16:58:12.000Z,161
2022-11-01T16:59:28.000Z,161
2022-11-01T17:00:44.000Z,163
2022-11-01T17:02:00.000Z,164
2022-11-01T17:03:16.000Z,163
2022-11-01T17:04:33.000Z,163
2022-11-01T17:05:49.000Z,163
2022-11-01T17:07:05.000Z,162
2022-11-01T17:08:21.000Z,163
2022-11-01T17:09:38.000Z,163
2022-11-01T17:10:53.000Z,164
2022-11-01T17:12:08.000Z,163
2022-11-01T17:13:24.000Z,161
2022-11-01T17:14:41.000Z,164
2022-11-01T17:15:57.000Z,164
2022-11-01T17:17:13.000Z,163
2022-11-01T17:18:29.000Z,162
2022-11-01T17:19:46.000Z,163
2022-11-01T17:21:02.000Z,162
2022-11-01T17:22:18.000Z,164
2022-11-01T17:23:34.000Z,164
2022-11-01T17:24:50.000Z,165
2022-11-01T17:26:05.000Z,163
2022-11-01T17:27:21.000Z,163
2022-11-01T17:28:37.000Z,164
2022-11-01T17:29:53.000Z,164
2022-11-01T17:31:10.000Z,162
2022-11-01T17:32:26.000Z,163
2022-11-01T17:33:42.000Z,163
2022-11-01T17:34:58.000Z,161
2022-11-01T17:36:15.000Z,164
2022-11-01T17:37:31.000Z,160
2022-11-01T17:38:47.000Z,161
2022-11-01T17:40:03.000Z,163
2022-11-01T17:41:20.000Z,160
2022-11-01T17:42:35.000Z,162
2022-11-01T17:43:51.000Z,164
2022-11-01T17:46:23.000Z,163
2022-11-01T17:47:40.000Z,163
2022-11-01T17:48:56.000Z,161
2022-11-01T17:50:12.000Z,161
2022-11-01T17:51:28.000Z,160
2022-11-01T17:52:45.000Z,160
2022-11-01T17:54:01.000Z,161
2022-11-01T17:55:16.000Z,162
2022-11-01T17:56:31.000Z,162
2022-11-01T17:59:03.000Z,163
2022-11-01T18:00:18.000Z,164
2022-11-01T18:01:33.000Z,164
2022-11-01T18:02:50.000Z,162
2022-11-01T18:04:06.000Z,165
2022-11-01T18:05:22.000Z,164
2022-11-01T18:06:38.000Z,163
2022-11-01T18:07:55.000Z,164
2022-11-01T18:09:11.000Z,160
2022-11-01T18:10:27.000Z,164
2022-11-01T18:11:43.000Z,164
2022-11-01T18:13:00.000Z,164
2022-11-01T18:14:16.000Z,164
2022-11-01T18:15:32.000Z,163
2022-11-01T18:16:48.000Z,164
2022-11-01T18:18:03.000Z,164
2022-11-01T18:19:20.000Z,164
2022-11-01T18:20:36.000Z,164
2022-11-01T18:21:52.000Z,164
2022-11-01T18:24:25.000Z,165
2022-11-01T18:25:41.000Z,164